Time;durP1;ratioP1;P1;durP2;ratioP2;P2;SDS_P1;SDS_P2;PMS_P1;PMS_P2;Temp;Humidity;BMP_temperature;BMP_pressure;BME280_temperature;BME280_humidity;BME280_pressure;Samples;Min_cycle;Max_cycle;Signal;HPM_P1;HPM_P2
2021/10/26 00:00:10;;;;;;;14.73;13.20;;;;;;;12.83;71.68;101248.41;5103779;28;20169;-64
2021/10/26 00:02:36;;;;;;;15.80;14.20;;;;;;;12.76;73.00;101253.63;5102088;28;20260;-63
2021/10/26 00:05:02;;;;;;;16.93;14.77;;;;;;;12.44;74.40;101253.31;5101153;28;20406;-64
2021/10/26 00:07:27;;;;;;;16.20;14.50;;;;;;;12.14;76.03;101252.13;5098543;28;20689;-63
2021/10/26 00:09:53;;;;;;;17.47;15.50;;;;;;;12.60;74.74;101256.97;5098739;28;20472;-63
2021/10/26 00:12:18;;;;;;;18.43;15.93;;;;;;;12.43;75.39;101251.53;5098614;28;20188;-63
2021/10/26 00:14:44;;;;;;;18.63;16.30;;;;;;;12.56;75.08;101248.19;5098606;28;20545;-64
2021/10/26 00:17:09;;;;;;;17.43;15.73;;;;;;;12.24;75.98;101253.09;5098528;28;20239;-63
2021/10/26 00:19:35;;;;;;;17.20;15.40;;;;;;;12.76;74.69;101251.00;5098740;28;20172;-65
2021/10/26 00:22:00;;;;;;;17.87;16.07;;;;;;;12.55;75.51;101248.19;5103039;28;20164;-63
2021/10/26 00:24:26;;;;;;;18.00;16.30;;;;;;;12.34;76.42;101252.34;5102488;28;20179;-65
2021/10/26 00:26:51;;;;;;;18.70;16.90;;;;;;;12.21;77.42;101250.47;5102946;28;20229;-65
2021/10/26 00:29:17;;;;;;;19.60;17.60;;;;;;;11.95;78.61;101253.66;5101588;28;20169;-64
2021/10/26 00:31:43;;;;;;;22.53;19.47;;;;;;;12.10;79.16;101253.81;5099581;28;20545;-63
2021/10/26 00:34:08;;;;;;;21.13;18.90;;;;;;;11.92;79.80;101253.53;5098383;28;20186;-63
2021/10/26 00:36:34;;;;;;;20.63;18.43;;;;;;;12.15;79.72;101250.38;5080989;28;20404;-63
2021/10/26 00:38:59;;;;;;;23.13;20.63;;;;;;;12.09;79.81;101246.81;5098136;28;20466;-64
2021/10/26 00:41:25;;;;;;;23.73;21.30;;;;;;;12.08;79.99;101250.31;5098026;28;20233;-63
2021/10/26 00:43:51;;;;;;;23.93;21.43;;;;;;;12.00;80.16;101241.53;5098662;28;20175;-63
2021/10/26 00:46:33;;;;;;;24.77;22.20;;;;;;;12.09;80.58;101243.34;5098180;28;20417;-63
2021/10/26 00:49:00;;;;;;;25.73;22.93;;;;;;;11.97;80.15;101238.84;5098452;28;20164;-63
2021/10/26 00:51:26;;;;;;;26.70;23.67;;;;;;;12.18;80.60;101242.56;5085107;28;20912;-63
2021/10/26 00:53:52;;;;;;;26.23;23.53;;;;;;;11.74;81.93;101233.31;5077721;28;20419;-65
2021/10/26 00:56:19;;;;;;;26.63;23.60;;;;;;;11.98;80.73;101232.75;5061038;28;20409;-63
2021/10/26 00:58:44;;;;;;;28.97;25.97;;;;;;;12.02;80.60;101236.31;5077771;28;20429;-64
2021/10/26 01:01:09;;;;;;;28.70;25.03;;;;;;;12.28;80.09;101236.56;5077630;28;20426;-63
2021/10/26 01:03:35;;;;;;;29.33;25.50;;;;;;;12.29;79.80;101236.59;5078100;28;20169;-63
2021/10/26 01:06:00;;;;;;;28.37;25.33;;;;;;;12.20;80.60;101246.06;5077741;28;20500;-64
2021/10/26 01:08:25;;;;;;;31.63;24.83;;;;;;;12.13;80.60;101242.53;5060332;28;20590;-63
2021/10/26 01:10:51;;;;;;;29.30;26.30;;;;;;;12.15;80.66;101239.91;5043872;28;20276;-63
2021/10/26 01:13:17;;;;;;;31.20;26.50;;;;;;;12.16;80.04;101234.69;5079015;28;20169;-64
2021/10/26 01:15:43;;;;;;;29.57;25.87;;;;;;;12.40;79.33;101238.44;5063881;28;20422;-64
2021/10/26 01:18:08;;;;;;;30.57;26.63;;;;;;;12.29;79.85;101240.97;5081905;28;20593;-64
2021/10/26 01:20:34;;;;;;;29.43;26.43;;;;;;;12.41;79.37;101235.84;5081184;28;20177;-64
2021/10/26 01:22:59;;;;;;;30.17;26.57;;;;;;;12.10;80.02;101240.75;5081101;28;20416;-64
2021/10/26 01:25:24;;;;;;;30.60;27.40;;;;;;;12.42;79.17;101241.94;5081511;28;20215;-63
2021/10/26 01:27:53;;;;;;;27.70;24.80;;;;;;;12.07;79.75;101238.09;5081229;28;20457;-63
2021/10/26 01:30:22;;;;;;;26.30;23.60;;;;;;;12.36;78.70;101232.31;5080901;28;20499;-65
2021/10/26 01:32:48;;;;;;;31.13;23.70;;;;;;;12.34;78.81;101231.44;5064039;28;20392;-63
2021/10/26 01:35:13;;;;;;;28.07;23.70;;;;;;;12.07;79.27;101235.50;5063562;28;20514;-64
2021/10/26 01:37:38;;;;;;;25.10;22.60;;;;;;;12.06;78.36;101228.50;5080949;28;20296;-63
2021/10/26 01:40:06;;;;;;;22.87;20.10;;;;;;;12.20;78.01;101238.25;5081478;28;20179;-63
2021/10/26 01:42:31;;;;;;;24.13;21.20;;;;;;;12.15;78.68;101230.34;5080601;28;20177;-63
2021/10/26 01:44:56;;;;;;;24.77;21.40;;;;;;;12.20;78.35;101233.00;5080694;28;20431;-63
2021/10/26 01:47:22;;;;;;;22.33;19.77;;;;;;;12.21;78.41;101232.16;5081104;28;20161;-65
2021/10/26 01:49:47;;;;;;;21.90;19.80;;;;;;;12.34;78.41;101235.75;5080969;28;20181;-63
2021/10/26 01:52:12;;;;;;;22.90;20.70;;;;;;;11.91;79.57;101242.22;5080550;28;20289;-65
2021/10/26 01:54:38;;;;;;;23.57;21.20;;;;;;;12.51;77.53;101233.34;5063586;28;20176;-63
2021/10/26 01:57:05;;;;;;;22.90;19.83;;;;;;;12.41;78.15;101238.47;5080612;28;20478;-63
2021/10/26 01:59:30;;;;;;;22.90;20.60;;;;;;;12.26;78.11;101233.09;5063084;28;20438;-63
2021/10/26 02:01:56;;;;;;;24.70;22.37;;;;;;;12.37;77.74;101233.19;5063467;28;20403;-63
2021/10/26 02:04:21;;;;;;;28.33;22.00;;;;;;;12.04;78.49;101230.25;5080472;28;20286;-64
2021/10/26 02:06:46;;;;;;;25.73;22.57;;;;;;;12.21;78.38;101229.53;5080497;28;20192;-63
2021/10/26 02:09:12;;;;;;;26.80;22.07;;;;;;;12.29;78.51;101230.50;5080900;28;20483;-63
2021/10/26 02:11:37;;;;;;;28.00;23.57;;;;;;;12.17;78.58;101233.00;5080187;28;20234;-63
2021/10/26 02:14:02;;;;;;;27.03;24.20;;;;;;;12.32;78.08;101230.53;5080285;28;20172;-63
2021/10/26 02:16:28;;;;;;;24.97;22.13;;;;;;;11.96;78.72;101224.00;5080611;28;20173;-63
2021/10/26 02:18:54;;;;;;;27.00;24.20;;;;;;;12.20;78.67;101223.41;5080201;28;20208;-63
2021/10/26 02:21:19;;;;;;;28.00;23.43;;;;;;;12.22;78.60;101226.06;5080105;28;20424;-63
2021/10/26 02:23:45;;;;;;;29.57;24.20;;;;;;;12.25;78.41;101224.34;5080602;28;20165;-63
2021/10/26 02:26:12;;;;;;;26.53;23.50;;;;;;;12.35;78.32;101224.44;5079455;28;20447;-64
2021/10/26 02:28:37;;;;;;;27.23;24.33;;;;;;;12.51;77.93;101225.47;5079976;28;20173;-63
2021/10/26 02:31:02;;;;;;;28.73;25.40;;;;;;;12.13;78.48;101229.44;5080200;28;20413;-64
2021/10/26 02:33:28;;;;;;;28.63;24.70;;;;;;;12.09;79.33;101225.91;5080315;28;20453;-64
2021/10/26 02:35:53;;;;;;;29.07;24.73;;;;;;;12.06;79.60;101230.25;5079932;28;20188;-64
2021/10/26 02:38:18;;;;;;;32.07;26.20;;;;;;;11.70;81.54;101226.28;5080842;28;20232;-63
2021/10/26 02:40:44;;;;;;;29.60;25.07;;;;;;;12.08;79.89;101228.50;5081616;28;20191;-65
2021/10/26 02:43:09;;;;;;;32.87;26.07;;;;;;;12.24;79.24;101227.81;5066585;28;20176;-63
2021/10/26 02:45:34;;;;;;;32.73;26.47;;;;;;;12.10;79.50;101227.69;5081293;28;20498;-63
2021/10/26 02:47:59;;;;;;;31.60;27.90;;;;;;;12.28;78.37;101221.75;5079888;28;20169;-64
2021/10/26 02:50:26;;;;;;;32.70;27.37;;;;;;;12.53;77.90;101219.41;5079441;28;20270;-63
2021/10/26 02:52:51;;;;;;;30.63;25.77;;;;;;;12.34;78.57;101220.97;5079959;28;20470;-63
2021/10/26 02:55:16;;;;;;;38.13;31.47;;;;;;;12.05;80.00;101229.34;5079388;28;20378;-63
2021/10/26 02:57:42;;;;;;;30.17;26.97;;;;;;;12.21;78.77;101229.53;5079255;28;20211;-63
2021/10/26 03:00:10;;;;;;;35.70;27.40;;;;;;;12.13;79.42;101225.09;5062520;28;20184;-64
2021/10/26 03:02:35;;;;;;;35.90;30.17;;;;;;;12.18;79.16;101224.25;5079074;28;20176;-63
2021/10/26 03:05:01;;;;;;;38.37;29.87;;;;;;;12.22;79.15;101218.22;5079291;28;20398;-63
2021/10/26 03:07:26;;;;;;;35.30;29.67;;;;;;;12.16;79.47;101223.38;5079628;28;20176;-63
2021/10/26 03:09:51;;;;;;;37.97;28.93;;;;;;;12.00;80.38;101217.09;5079120;28;20530;-63
2021/10/26 03:12:17;;;;;;;39.00;29.43;;;;;;;12.06;79.76;101214.56;5078676;28;20197;-63
2021/10/26 03:14:42;;;;;;;40.23;30.40;;;;;;;12.05;79.83;101218.91;5079606;28;20179;-63
2021/10/26 03:17:07;;;;;;;36.27;30.23;;;;;;;11.84;80.59;101227.34;5061302;28;20203;-63
2021/10/26 03:19:33;;;;;;;36.10;29.20;;;;;;;11.92;80.67;101216.97;5079008;28;20181;-63
2021/10/26 03:21:58;;;;;;;41.30;31.97;;;;;;;11.91;80.94;101220.47;5079313;28;20165;-64
2021/10/26 03:24:23;;;;;;;38.77;31.20;;;;;;;11.71;81.60;101209.78;5078751;28;20534;-63
2021/10/26 03:26:49;;;;;;;37.03;30.37;;;;;;;11.91;80.32;101213.50;5078709;28;20515;-64
2021/10/26 03:29:15;;;;;;;39.73;30.53;;;;;;;11.89;80.66;101216.94;5079335;28;20193;-64
2021/10/26 03:31:40;;;;;;;40.80;33.07;;;;;;;11.51;82.03;101225.19;5078575;28;20183;-64
2021/10/26 03:34:06;;;;;;;39.17;32.37;;;;;;;11.81;81.10;101206.38;5086276;28;20465;-64
2021/10/26 03:36:33;;;;;;;44.67;32.50;;;;;;;11.98;80.52;101206.63;5087475;28;20187;-64
2021/10/26 03:38:59;;;;;;;41.90;32.80;;;;;;;11.75;81.12;101201.97;5086928;28;20200;-64
2021/10/26 03:41:24;;;;;;;43.73;31.70;;;;;;;11.57;81.69;101199.16;5081882;28;20517;-64
2021/10/26 03:43:49;;;;;;;39.10;32.70;;;;;;;11.80;80.93;101208.13;5079377;28;20374;-64
2021/10/26 03:46:15;;;;;;;41.47;32.57;;;;;;;11.62;82.39;101200.97;5078637;28;20211;-63
2021/10/26 03:48:41;;;;;;;43.60;32.10;;;;;;;11.43;83.38;101218.13;5078550;28;20169;-63
2021/10/26 03:51:06;;;;;;;39.20;31.50;;;;;;;11.57;82.32;101210.47;5078352;28;20224;-63
2021/10/26 03:53:32;;;;;;;37.23;30.73;;;;;;;11.60;81.86;101212.25;5078313;28;20205;-63
2021/10/26 03:55:59;;;;;;;39.40;31.30;;;;;;;11.66;82.23;101209.69;5078471;28;20169;-63
2021/10/26 03:58:24;;;;;;;37.47;30.83;;;;;;;11.72;81.76;101215.00;5078551;28;20589;-64
2021/10/26 04:00:49;;;;;;;39.57;32.37;;;;;;;11.84;80.84;101216.00;5078173;28;20397;-64
2021/10/26 04:03:15;;;;;;;41.60;32.43;;;;;;;11.72;81.42;101216.75;5061564;28;20168;-64
2021/10/26 04:05:55;;;;;;;40.17;33.90;;;;;;;11.89;80.42;101222.16;5078277;28;20222;-64
2021/10/26 04:08:31;;;;;;;41.90;32.90;;;;;;;11.92;80.58;101214.34;5078259;28;20256;-64
2021/10/26 04:11:12;;;;;;;43.20;32.60;;;;;;;11.76;80.94;101222.03;5078164;28;20678;-63
2021/10/26 04:13:37;;;;;;;43.03;33.70;;;;;;;11.62;82.00;101221.84;5078346;28;20422;-64
2021/10/26 04:16:03;;;;;;;42.70;32.93;;;;;;;11.78;81.59;101228.16;5078085;28;20394;-64
2021/10/26 04:18:28;;;;;;;38.30;31.20;;;;;;;11.58;82.43;101232.22;5077983;28;20628;-63
2021/10/26 04:20:53;;;;;;;40.30;33.13;;;;;;;11.68;82.04;101230.63;5060785;28;20264;-63
2021/10/26 04:23:19;;;;;;;41.13;31.90;;;;;;;11.78;81.77;101229.88;5077961;28;20245;-63
2021/10/26 04:25:44;;;;;;;39.80;32.17;;;;;;;11.96;81.13;101237.97;5078113;28;20187;-63
2021/10/26 04:28:10;;;;;;;39.03;30.70;;;;;;;11.95;80.94;101237.97;5078554;28;20165;-63
2021/10/26 04:30:36;;;;;;;37.57;31.60;;;;;;;11.92;80.88;101250.94;5077805;28;20176;-63
2021/10/26 04:33:03;;;;;;;41.33;29.90;;;;;;;12.04;80.73;101238.06;5078089;28;20214;-63
2021/10/26 04:35:28;;;;;;;34.97;29.83;;;;;;;12.17;80.23;101243.44;5078435;28;20428;-63
2021/10/26 04:37:54;;;;;;;36.17;30.60;;;;;;;11.88;80.82;101241.31;5077885;28;20469;-63
2021/10/26 04:40:19;;;;;;;36.23;28.50;;;;;;;12.23;80.05;101246.09;5060134;28;20488;-63
2021/10/26 04:42:45;;;;;;;37.13;29.10;;;;;;;11.93;81.13;101248.38;5060810;28;20408;-63
2021/10/26 04:45:10;;;;;;;34.83;29.37;;;;;;;12.17;80.17;101253.91;5078238;28;20173;-63
2021/10/26 04:47:36;;;;;;;38.93;31.40;;;;;;;12.01;80.96;101258.94;5078255;28;20177;-63
2021/10/26 04:50:02;;;;;;;34.37;28.43;;;;;;;11.96;81.00;101252.75;5082044;28;20169;-63
2021/10/26 04:52:27;;;;;;;36.53;29.80;;;;;;;12.17;80.33;101253.91;5081710;28;20176;-64
2021/10/26 04:54:52;;;;;;;36.77;30.03;;;;;;;11.84;81.39;101258.69;5081713;28;20427;-63
2021/10/26 04:57:18;;;;;;;35.50;29.40;;;;;;;12.06;80.84;101259.88;5081951;28;20197;-64
2021/10/26 04:59:43;;;;;;;36.30;28.63;;;;;;;12.18;80.76;101264.38;5081586;28;20219;-64
2021/10/26 05:02:08;;;;;;;37.63;29.10;;;;;;;11.91;81.84;101255.28;5081263;28;20187;-63
2021/10/26 05:04:33;;;;;;;36.23;28.57;;;;;;;11.85;81.91;101270.88;5081952;28;20188;-64
2021/10/26 05:06:59;;;;;;;32.60;26.57;;;;;;;11.91;81.67;101263.13;5081498;28;20565;-63
2021/10/26 05:09:24;;;;;;;38.13;28.20;;;;;;;11.73;82.22;101263.78;5081343;28;20561;-64
2021/10/26 05:11:50;;;;;;;38.17;28.87;;;;;;;11.85;81.81;101275.25;5081517;28;20197;-64
2021/10/26 05:14:15;;;;;;;34.20;27.33;;;;;;;11.98;81.36;101260.66;5063804;28;20249;-63
2021/10/26 05:16:43;;;;;;;37.40;29.43;;;;;;;12.07;81.40;101277.31;5081254;28;20180;-63
2021/10/26 05:19:09;;;;;;;33.70;27.97;;;;;;;12.03;81.93;101266.78;5082958;28;20228;-64
2021/10/26 05:21:34;;;;;;;34.80;28.93;;;;;;;11.94;82.07;101275.38;5088408;28;20472;-63
2021/10/26 05:23:59;;;;;;;39.07;29.13;;;;;;;12.02;81.51;101278.13;5086958;28;20181;-64
2021/10/26 05:26:25;;;;;;;38.37;30.37;;;;;;;12.01;81.52;101274.59;5084767;28;20169;-63
2021/10/26 05:28:51;;;;;;;39.90;28.83;;;;;;;12.10;81.23;101279.09;5081395;28;20196;-64
2021/10/26 05:31:17;;;;;;;35.73;29.07;;;;;;;12.10;81.42;101273.84;5063610;28;20411;-63
2021/10/26 05:33:43;;;;;;;34.07;27.87;;;;;;;11.95;81.91;101274.53;5081286;28;20201;-64
2021/10/26 05:36:08;;;;;;;37.60;29.00;;;;;;;12.11;81.23;101284.31;5080606;28;20411;-64
2021/10/26 05:38:34;;;;;;;39.33;30.20;;;;;;;11.84;82.55;101283.94;5080739;28;20204;-64
2021/10/26 05:41:00;;;;;;;36.00;29.13;;;;;;;12.43;80.28;101285.53;5080910;28;20197;-63
2021/10/26 05:43:26;;;;;;;37.23;30.63;;;;;;;12.01;81.41;101287.66;5063313;28;20462;-63
2021/10/26 05:45:52;;;;;;;36.73;29.33;;;;;;;12.16;81.23;101286.13;5080522;28;20259;-63
2021/10/26 05:48:18;;;;;;;39.70;30.40;;;;;;;12.16;81.05;101288.72;5081140;28;20156;-63
2021/10/26 05:50:44;;;;;;;35.30;30.13;;;;;;;12.24;81.32;101282.72;5080127;28;20532;-63
2021/10/26 05:53:09;;;;;;;39.07;29.20;;;;;;;12.28;80.99;101281.03;5080452;28;20797;-64
2021/10/26 05:55:35;;;;;;;35.93;30.43;;;;;;;12.12;80.80;101273.00;5080811;28;20403;-64
2021/10/26 05:58:00;;;;;;;32.50;27.20;;;;;;;11.92;82.24;101284.91;5080274;28;20200;-63
2021/10/26 06:00:26;;;;;;;37.90;29.70;;;;;;;12.08;81.29;101281.69;5079048;28;20173;-63
2021/10/26 06:02:52;;;;;;;35.93;28.90;;;;;;;12.09;81.72;101291.25;5080791;28;20168;-64
2021/10/26 06:05:17;;;;;;;39.77;30.03;;;;;;;12.21;80.50;101287.91;5080115;28;20731;-64
2021/10/26 06:07:43;;;;;;;39.80;29.77;;;;;;;12.04;81.39;101295.56;5080229;28;20403;-63
2021/10/26 06:10:10;;;;;;;40.47;30.07;;;;;;;11.94;82.40;101298.88;5080843;28;20256;-63
2021/10/26 06:12:37;;;;;;;39.00;30.23;;;;;;;11.98;81.88;101300.69;5080005;28;20192;-65
2021/10/26 06:15:03;;;;;;;37.70;29.60;;;;;;;12.45;79.93;101312.59;5062840;28;20456;-64
2021/10/26 06:17:29;;;;;;;39.90;31.20;;;;;;;12.03;81.26;101319.03;5080482;28;20758;-63
2021/10/26 06:19:55;;;;;;;36.20;28.27;;;;;;;12.02;81.68;101318.19;5079985;28;20416;-62
2021/10/26 06:22:20;;;;;;;35.23;29.80;;;;;;;12.17;81.24;101316.63;5079979;28;20665;-63
2021/10/26 06:24:47;;;;;;;37.63;30.40;;;;;;;12.29;80.79;101320.25;5080284;28;20180;-64
2021/10/26 06:27:12;;;;;;;36.43;30.60;;;;;;;12.11;81.77;101317.44;5080046;28;20532;-64
2021/10/26 06:29:37;;;;;;;37.37;29.50;;;;;;;12.30;80.77;101318.53;5079903;28;20382;-63
2021/10/26 06:32:03;;;;;;;34.13;28.30;;;;;;;12.23;80.63;101319.28;5079893;28;20171;-64
2021/10/26 06:34:28;;;;;;;38.97;29.30;;;;;;;12.11;80.64;101327.88;5079672;28;20441;-63
2021/10/26 06:36:53;;;;;;;34.60;27.30;;;;;;;12.24;80.74;101326.28;5079707;28;20175;-64
2021/10/26 06:39:21;;;;;;;36.53;29.17;;;;;;;12.26;80.44;101335.91;5080041;28;20169;-64
2021/10/26 06:41:49;;;;;;;33.27;27.00;;;;;;;12.75;80.09;101337.31;5079431;28;20283;-72
2021/10/26 06:44:15;;;;;;;31.83;26.00;;;;;;;13.44;75.88;101335.34;5079801;28;20438;-73
2021/10/26 06:46:41;;;;;;;22.03;19.50;;;;;;;13.94;74.68;101335.66;5081440;28;20816;-73
2021/10/26 06:49:07;;;;;;;24.93;22.23;;;;;;;14.03;73.51;101340.06;5080450;28;20479;-71
2021/10/26 06:51:32;;;;;;;20.83;18.40;;;;;;;13.48;75.55;101339.72;5079242;28;20524;-71
2021/10/26 06:53:58;;;;;;;19.17;17.27;;;;;;;14.32;73.03;101337.56;5079903;28;20290;-71
2021/10/26 06:56:24;;;;;;;30.17;26.80;;;;;;;13.44;75.15;101353.66;5079290;28;20241;-64
2021/10/26 06:58:49;;;;;;;29.37;25.87;;;;;;;12.98;77.16;101355.88;5079156;28;20787;-65
2021/10/26 07:01:14;;;;;;;29.60;25.93;;;;;;;13.02;77.23;101356.78;5079439;28;20165;-65
2021/10/26 07:03:40;;;;;;;33.30;27.90;;;;;;;13.10;77.27;101358.59;5078910;28;20180;-65
2021/10/26 07:06:06;;;;;;;33.67;27.70;;;;;;;12.43;79.46;101362.28;5079104;28;20165;-64
2021/10/26 07:08:32;;;;;;;33.43;27.40;;;;;;;12.51;79.51;101370.19;5079286;28;20437;-65
2021/10/26 07:10:58;;;;;;;33.77;26.53;;;;;;;12.21;80.88;101375.94;5078371;28;20809;-67
2021/10/26 07:13:24;;;;;;;34.83;27.90;;;;;;;12.48;79.74;101369.28;5078919;28;20165;-70
2021/10/26 07:15:49;;;;;;;36.60;28.73;;;;;;;12.36;79.71;101373.50;5079339;28;20453;-66
2021/10/26 07:18:15;;;;;;;40.20;29.60;;;;;;;12.44;80.67;101381.44;5083457;28;20548;-64
2021/10/26 07:20:40;;;;;;;33.53;28.30;;;;;;;12.32;81.51;101378.69;5096321;28;20184;-64
2021/10/26 07:23:05;;;;;;;38.03;27.80;;;;;;;12.50;80.25;101383.25;5078971;28;20173;-65
2021/10/26 07:25:31;;;;;;;36.20;28.30;;;;;;;12.12;81.54;101382.78;5083432;28;20536;-64
2021/10/26 07:27:59;;;;;;;35.97;29.30;;;;;;;12.57;80.17;101380.72;5098781;28;20191;-64
2021/10/26 07:30:29;;;;;;;34.73;28.93;;;;;;;12.65;79.81;101378.22;5099210;28;20239;-64
2021/10/26 07:33:00;;;;;;;35.03;29.80;;;;;;;12.82;78.92;101378.38;5098461;28;20442;-65
2021/10/26 07:35:30;;;;;;;42.57;29.40;;;;;;;12.34;80.73;101380.47;5081873;28;20469;-65
2021/10/26 07:37:55;;;;;;;36.27;29.67;;;;;;;12.60;80.06;101380.75;5078166;28;20525;-66
2021/10/26 07:40:20;;;;;;;36.13;29.47;;;;;;;12.55;79.76;101392.03;5078301;28;20447;-65
2021/10/26 07:42:46;;;;;;;34.03;28.53;;;;;;;12.57;79.69;101383.34;5078617;28;20248;-65
2021/10/26 07:45:12;;;;;;;34.43;28.77;;;;;;;12.44;80.26;101394.53;5078105;28;20234;-65
2021/10/26 07:47:37;;;;;;;35.60;29.33;;;;;;;12.57;79.90;101396.44;5078520;28;20173;-66
2021/10/26 07:50:05;;;;;;;33.20;26.93;;;;;;;12.74;79.07;101396.59;5078811;28;20612;-66
2021/10/26 07:52:30;;;;;;;34.00;28.03;;;;;;;12.86;78.26;101395.88;5094740;28;20180;-66
2021/10/26 07:54:55;;;;;;;34.30;27.10;;;;;;;12.94;78.65;101401.19;5098452;28;20509;-66
2021/10/26 07:57:24;;;;;;;32.23;24.87;;;;;;;12.85;78.67;101401.97;5095948;28;20196;-67
2021/10/26 07:59:51;;;;;;;32.43;26.07;;;;;;;12.88;78.16;101403.72;5064104;28;20185;-66
2021/10/26 08:02:17;;;;;;;28.20;24.20;;;;;;;12.91;78.50;101402.03;5078723;28;20442;-67
2021/10/26 08:04:44;;;;;;;30.90;25.93;;;;;;;13.12;77.48;101405.72;5079542;28;20665;-66
2021/10/26 08:07:10;;;;;;;33.10;27.17;;;;;;;13.14;77.48;101404.00;5078789;28;20415;-68
2021/10/26 08:09:35;;;;;;;31.93;26.73;;;;;;;13.29;77.33;101403.28;5078439;28;20779;-66
2021/10/26 08:12:02;;;;;;;32.40;25.60;;;;;;;13.13;77.39;101405.75;5077843;28;20192;-66
2021/10/26 08:14:27;;;;;;;31.50;26.63;;;;;;;13.24;77.24;101410.22;5077768;28;20176;-66
2021/10/26 08:16:52;;;;;;;31.77;26.33;;;;;;;13.22;77.17;101412.81;5077941;28;20411;-66
2021/10/26 08:19:19;;;;;;;32.80;24.43;;;;;;;12.99;77.96;101407.34;5077890;28;20208;-66
2021/10/26 08:21:46;;;;;;;31.40;26.07;;;;;;;13.33;77.07;101405.06;5077406;28;20570;-67
2021/10/26 08:24:11;;;;;;;32.50;24.67;;;;;;;12.92;77.56;101406.41;5077529;28;20438;-67
2021/10/26 08:26:43;;;;;;;28.63;24.20;;;;;;;13.32;76.38;101401.53;5077749;28;20397;-65
2021/10/26 08:34:31;;;;;;;32.17;24.30;;;;;;;13.41;76.50;101402.53;5032805;28;20616;-66
2021/10/26 08:36:57;;;;;;;29.80;25.27;;;;;;;13.77;75.38;101406.31;5077622;28;20433;-67
2021/10/26 08:39:22;;;;;;;27.37;23.03;;;;;;;13.75;75.22;101408.91;5077587;28;20546;-65
2021/10/26 08:41:49;;;;;;;31.10;25.50;;;;;;;13.92;74.87;101410.78;5077697;28;20556;-67
2021/10/26 08:44:16;;;;;;;31.10;23.53;;;;;;;13.90;74.97;101409.91;5043987;28;20185;-67
2021/10/26 08:46:44;;;;;;;27.53;23.77;;;;;;;13.95;74.40;101409.06;5060304;28;20397;-67
2021/10/26 08:49:12;;;;;;;28.87;22.67;;;;;;;13.27;76.31;101411.13;5077556;28;20423;-67
2021/10/26 08:51:40;;;;;;;26.17;22.93;;;;;;;13.17;77.18;101413.66;5077196;28;20475;-66
2021/10/26 08:54:06;;;;;;;24.73;21.87;;;;;;;13.43;76.13;101412.16;5077069;28;20393;-68
2021/10/26 08:56:31;;;;;;;27.40;21.40;;;;;;;14.29;73.50;101414.50;5077691;28;20419;-68
2021/10/26 08:58:56;;;;;;;24.70;22.10;;;;;;;13.85;74.63;101420.34;5077475;28;20223;-66
2021/10/26 09:01:22;;;;;;;27.80;23.57;;;;;;;13.48;75.83;101414.81;5077249;28;20562;-66
2021/10/26 09:03:48;;;;;;;26.67;23.80;;;;;;;14.06;73.93;101413.47;5077706;28;20172;-66
2021/10/26 09:06:23;;;;;;;28.13;22.43;;;;;;;14.20;73.68;101416.19;5077478;28;20263;-67
2021/10/26 09:08:49;;;;;;;27.20;21.83;;;;;;;14.40;72.73;101411.91;5077356;28;20393;-67
2021/10/26 09:11:23;;;;;;;26.43;23.10;;;;;;;14.02;73.97;101415.22;5059609;28;20478;-67
2021/10/26 09:16:47;;;;;;;27.43;22.90;;;;;;;14.31;73.47;101410.16;5077389;28;20429;-67
2021/10/26 09:19:16;;;;;;;27.70;22.97;;;;;;;13.87;73.63;101408.13;5077081;28;20867;-66
2021/10/26 09:21:44;;;;;;;24.67;21.30;;;;;;;14.00;73.10;101411.69;5077164;28;20564;-67
2021/10/26 09:24:13;;;;;;;24.77;22.20;;;;;;;14.05;73.65;101411.75;5077329;28;20515;-67
2021/10/26 09:26:52;;;;;;;23.50;20.20;;;;;;;13.78;73.56;101408.94;5059999;28;20423;-67
2021/10/26 09:29:20;;;;;;;25.73;19.97;;;;;;;13.50;74.30;101413.09;5076709;28;20819;-67
2021/10/26 09:31:45;;;;;;;21.47;19.17;;;;;;;13.80;73.75;101420.31;5077175;28;20880;-66
2021/10/26 09:34:16;;;;;;;23.60;19.00;;;;;;;13.93;72.72;101423.03;5079646;28;20430;-66
2021/10/26 09:36:44;;;;;;;24.30;20.07;;;;;;;14.04;73.38;101423.97;5080812;28;20209;-66
2021/10/26 09:39:14;;;;;;;23.07;20.40;;;;;;;13.78;73.17;101424.66;5080965;28;20816;-67
2021/10/26 09:41:51;;;;;;;23.50;19.40;;;;;;;13.64;73.68;101426.31;5080564;28;20415;-66
2021/10/26 09:44:19;;;;;;;23.30;20.40;;;;;;;14.04;72.22;101430.97;5080403;28;20419;-66
2021/10/26 09:46:53;;;;;;;22.70;20.30;;;;;;;14.17;72.05;101426.66;5063039;28;20419;-67
2021/10/26 09:49:29;;;;;;;23.17;19.60;;;;;;;14.02;72.70;101433.56;5080471;28;20393;-66
2021/10/26 09:52:07;;;;;;;21.97;19.67;;;;;;;13.73;72.96;101435.97;5080225;28;20855;-66
2021/10/26 09:54:32;;;;;;;18.83;16.93;;;;;;;13.63;72.96;101433.28;5080338;28;20454;-72
2021/10/26 09:57:03;;;;;;;25.50;17.87;;;;;;;13.23;74.27;101442.47;5063613;28;20848;-68
2021/10/26 09:59:29;;;;;;;23.40;19.30;;;;;;;13.39;74.32;101443.56;5083483;28;20176;-68
2021/10/26 10:01:55;;;;;;;21.73;19.10;;;;;;;13.64;73.99;101434.19;5082835;28;20389;-68
2021/10/26 10:04:32;;;;;;;21.00;17.30;;;;;;;13.77;73.21;101438.66;5082819;28;20234;-68
2021/10/26 10:06:58;;;;;;;24.87;19.00;;;;;;;13.45;74.67;101428.78;5079727;28;20176;-69
2021/10/26 10:09:24;;;;;;;22.43;18.13;;;;;;;13.79;72.83;101429.03;5062603;28;20851;-69
2021/10/26 10:11:57;;;;;;;26.37;19.00;;;;;;;13.78;73.44;101434.28;5079796;28;20434;-70
2021/10/26 10:14:22;;;;;;;23.50;19.90;;;;;;;13.86;72.91;101439.59;5062910;28;20211;-70
2021/10/26 10:16:50;;;;;;;20.70;18.43;;;;;;;14.21;71.63;101429.31;5079970;28;20680;-70
2021/10/26 10:19:18;;;;;;;22.07;18.20;;;;;;;15.20;68.04;101428.84;5079468;28;20611;-69
2021/10/26 10:21:45;;;;;;;20.50;18.30;;;;;;;15.07;67.37;101423.56;5080051;28;20394;-69
2021/10/26 10:24:13;;;;;;;22.53;17.50;;;;;;;14.97;67.79;101425.28;5079792;28;20502;-70
2021/10/26 10:26:39;;;;;;;20.30;18.10;;;;;;;15.54;66.03;101427.09;5062120;28;20400;-70
2021/10/26 10:29:04;;;;;;;17.40;14.97;;;;;;;15.15;64.53;101428.81;5079997;28;20411;-70
2021/10/26 10:31:31;;;;;;;16.03;14.33;;;;;;;15.44;64.69;101436.72;5062040;28;20177;-71
2021/10/26 10:33:59;;;;;;;18.80;14.00;;;;;;;14.62;64.96;101439.13;5062149;28;20204;-69
2021/10/26 10:36:24;;;;;;;13.77;12.13;;;;;;;14.98;64.37;101427.03;5062443;28;20407;-70
2021/10/26 10:39:06;;;;;;;14.37;11.67;;;;;;;15.66;61.94;101431.47;5062132;28;20512;-69
2021/10/26 10:41:37;;;;;;;13.67;12.00;;;;;;;15.41;62.15;101428.84;5062661;28;20179;-67
2021/10/26 10:44:05;;;;;;;13.37;11.97;;;;;;;16.00;61.14;101431.47;5080045;28;20501;-67
2021/10/26 10:46:59;;;;;;;14.07;12.63;;;;;;;15.96;60.50;101433.22;5078875;28;20415;-66
2021/10/26 10:49:36;;;;;;;15.23;11.50;;;;;;;17.06;58.39;101426.69;5079272;28;20504;-68
2021/10/26 10:52:15;;;;;;;15.33;12.63;;;;;;;16.73;59.13;101436.50;5078765;28;20717;-68
2021/10/26 10:54:57;;;;;;;15.20;11.90;;;;;;;17.17;57.07;101432.78;5062133;28;20419;-66
2021/10/26 10:57:30;;;;;;;13.30;12.00;;;;;;;16.34;58.57;101436.66;5061635;28;20419;-73
2021/10/26 11:00:05;;;;;;;13.90;12.60;;;;;;;15.43;60.64;101431.47;5079090;28;20490;-67
2021/10/26 11:02:34;;;;;;;12.83;11.53;;;;;;;15.67;61.18;101435.88;5078948;28;20502;-67
2021/10/26 11:05:00;;;;;;;13.30;12.10;;;;;;;15.30;61.52;101431.47;5078913;28;20888;-69
2021/10/26 11:07:41;;;;;;;14.40;12.90;;;;;;;15.45;60.99;101433.25;5078608;28;20538;-67
2021/10/26 11:10:07;;;;;;;14.07;12.30;;;;;;;15.18;62.04;101420.06;5078710;28;20439;-68
2021/10/26 11:12:35;;;;;;;13.40;12.10;;;;;;;16.31;58.44;101418.25;5078589;28;20441;-68
2021/10/26 11:15:04;;;;;;;13.27;11.87;;;;;;;16.78;57.03;101425.06;5078848;28;20165;-68